createdAt,value
2022-11-21T00:00:42.258Z,30.47
2022-11-21T00:03:10.314Z,32.07
2022-11-21T00:05:40.431Z,32.93
2022-11-21T00:08:07.838Z,33.40
2022-11-21T00:10:36.330Z,31.70
2022-11-21T00:13:03.421Z,33.43
2022-11-21T00:15:30.558Z,32.63
2022-11-21T00:17:57.706Z,32.93
2022-11-21T00:20:24.847Z,34.83
2022-11-21T00:22:51.984Z,36.90
2022-11-21T00:25:19.288Z,34.40
2022-11-21T00:27:46.397Z,37.57
2022-11-21T00:30:14.002Z,33.87
2022-11-21T00:32:41.267Z,33.90
2022-11-21T00:35:08.565Z,36.23
2022-11-21T00:37:36.039Z,36.57
2022-11-21T00:40:03.234Z,33.23
2022-11-21T00:42:30.390Z,29.53
2022-11-21T00:44:57.475Z,31.57
2022-11-21T00:47:24.710Z,32.33
2022-11-21T00:49:51.796Z,32.43
2022-11-21T00:52:18.974Z,36.03
2022-11-21T00:54:46.150Z,33.03
2022-11-21T00:57:13.248Z,34.17
2022-11-21T00:59:40.312Z,33.70
2022-11-21T01:02:07.717Z,32.53
2022-11-21T01:04:35.231Z,32.70
2022-11-21T01:07:02.511Z,32.60
2022-11-21T01:09:29.700Z,35.57
2022-11-21T01:11:57.103Z,34.07
2022-11-21T01:14:24.732Z,32.70
2022-11-21T01:16:51.982Z,33.10
2022-11-21T01:19:19.091Z,32.93
2022-11-21T01:21:46.253Z,32.57
2022-11-21T01:24:13.309Z,31.37
2022-11-21T01:26:42.580Z,31.37
2022-11-21T01:29:09.683Z,32.00
2022-11-21T01:31:36.828Z,31.73
2022-11-21T01:34:03.906Z,33.97
2022-11-21T01:36:32.473Z,33.50
2022-11-21T01:39:00.579Z,35.57
2022-11-21T01:41:33.685Z,32.47
2022-11-21T01:44:05.036Z,31.70
2022-11-21T01:46:32.129Z,31.70
2022-11-21T01:49:07.443Z,31.90
2022-11-21T01:51:37.274Z,30.00
2022-11-21T01:54:04.432Z,29.10
2022-11-21T01:56:33.849Z,29.77
2022-11-21T01:59:02.528Z,28.10
2022-11-21T02:01:30.120Z,27.83
2022-11-21T02:03:57.542Z,29.43
2022-11-21T02:06:25.742Z,27.73
2022-11-21T02:08:52.931Z,26.83
2022-11-21T02:11:28.169Z,29.50
2022-11-21T02:13:55.509Z,27.60
2022-11-21T02:16:23.401Z,29.03
2022-11-21T02:18:50.503Z,29.20
2022-11-21T02:21:36.395Z,29.07
2022-11-21T02:24:21.718Z,27.77
2022-11-21T02:26:49.393Z,29.00
2022-11-21T02:29:16.657Z,29.70
2022-11-21T02:31:43.801Z,28.97
2022-11-21T02:34:12.660Z,29.57
2022-11-21T02:36:40.076Z,29.40
2022-11-21T02:39:13.047Z,30.17
2022-11-21T02:41:44.100Z,28.77
2022-11-21T02:44:19.714Z,27.50
2022-11-21T02:46:48.557Z,29.53
2022-11-21T02:49:17.291Z,28.20
2022-11-21T02:51:44.414Z,29.50
2022-11-21T02:54:11.480Z,30.40
2022-11-21T02:56:38.560Z,27.03
2022-11-21T02:59:05.834Z,29.00
2022-11-21T03:01:32.919Z,29.80
2022-11-21T03:04:00.015Z,26.83
2022-11-21T03:06:27.113Z,28.17
2022-11-21T03:08:54.171Z,27.43
2022-11-21T03:11:21.272Z,26.50
2022-11-21T03:13:48.338Z,25.33
2022-11-21T03:16:15.388Z,25.00
2022-11-21T03:18:42.467Z,24.17
2022-11-21T03:21:09.547Z,25.60
2022-11-21T03:23:36.640Z,25.67
2022-11-21T03:26:03.718Z,23.53
2022-11-21T03:28:30.855Z,24.43
2022-11-21T03:30:57.964Z,24.27
2022-11-21T03:33:25.052Z,26.33
2022-11-21T03:35:52.102Z,24.47
2022-11-21T03:38:19.339Z,23.47
2022-11-21T03:40:46.452Z,25.97
2022-11-21T03:43:13.536Z,26.03
2022-11-21T03:45:40.600Z,26.10
2022-11-21T03:48:07.806Z,25.53
2022-11-21T03:50:34.959Z,26.10
2022-11-21T03:53:02.029Z,25.20
2022-11-21T03:55:29.089Z,25.20
2022-11-21T03:57:56.229Z,25.13
2022-11-21T04:00:23.454Z,26.23
2022-11-21T04:02:50.555Z,23.23
2022-11-21T04:05:17.669Z,21.10
2022-11-21T04:07:45.884Z,18.87
2022-11-21T04:10:13.033Z,18.63
2022-11-21T04:12:40.157Z,19.57
2022-11-21T04:15:13.217Z,18.17
2022-11-21T04:17:40.998Z,17.17
2022-11-21T04:20:08.879Z,17.63
2022-11-21T04:22:35.923Z,17.87
2022-11-21T04:25:02.961Z,20.10
2022-11-21T04:27:29.988Z,18.37
2022-11-21T04:29:57.043Z,18.27
2022-11-21T04:32:24.098Z,20.20
2022-11-21T04:34:51.152Z,19.50
2022-11-21T04:37:18.265Z,19.47
2022-11-21T04:39:45.491Z,20.10
2022-11-21T04:42:14.771Z,17.77
2022-11-21T04:44:42.026Z,20.10
2022-11-21T04:47:09.170Z,18.57
2022-11-21T04:49:36.239Z,19.03
2022-11-21T04:52:03.380Z,18.23
2022-11-21T04:54:30.869Z,17.87
2022-11-21T04:56:58.193Z,17.70
2022-11-21T04:59:25.270Z,18.67
2022-11-21T05:01:52.400Z,18.30
2022-11-21T05:04:19.566Z,19.07
2022-11-21T05:06:46.652Z,19.53
2022-11-21T05:09:13.703Z,20.97
2022-11-21T05:11:59.434Z,21.40
2022-11-21T05:14:27.176Z,22.47
2022-11-21T05:16:54.502Z,21.73
2022-11-21T05:19:21.561Z,22.40
2022-11-21T05:21:48.718Z,22.77
2022-11-21T05:24:15.772Z,22.80
2022-11-21T05:26:42.904Z,23.87
2022-11-21T05:29:09.981Z,22.70
2022-11-21T05:31:37.065Z,21.70
2022-11-21T05:34:04.138Z,21.97
2022-11-21T05:36:31.278Z,23.20
2022-11-21T05:38:58.523Z,22.40
2022-11-21T05:41:25.637Z,20.93
2022-11-21T05:43:52.715Z,21.23
2022-11-21T05:46:20.812Z,23.43
2022-11-21T05:48:48.607Z,21.90
2022-11-21T05:51:16.564Z,21.87
2022-11-21T05:53:44.205Z,23.13
2022-11-21T05:56:12.654Z,24.13
2022-11-21T05:58:40.032Z,23.23
2022-11-21T06:01:08.011Z,23.70
2022-11-21T06:03:36.514Z,22.77
2022-11-21T06:06:03.640Z,22.87
2022-11-21T06:08:32.016Z,20.67
2022-11-21T06:10:59.151Z,21.40
2022-11-21T06:13:26.300Z,21.93
2022-11-21T06:15:56.908Z,22.13
2022-11-21T06:18:24.214Z,22.60
2022-11-21T06:20:51.699Z,20.73
2022-11-21T06:23:18.958Z,21.93
2022-11-21T06:25:46.303Z,21.57
2022-11-21T06:28:13.534Z,21.73
2022-11-21T06:30:40.652Z,22.20
2022-11-21T06:33:08.162Z,22.77
2022-11-21T06:35:38.322Z,21.80
2022-11-21T06:38:05.442Z,22.00
2022-11-21T06:40:32.539Z,23.17
2022-11-21T06:42:59.743Z,21.97
2022-11-21T06:45:26.962Z,22.10
2022-11-21T06:47:54.109Z,21.87
2022-11-21T06:50:21.218Z,22.97
2022-11-21T06:52:48.275Z,22.37
2022-11-21T06:55:15.416Z,22.23
2022-11-21T06:57:42.550Z,22.30
2022-11-21T07:00:09.854Z,22.27
2022-11-21T07:02:36.910Z,22.07
2022-11-21T07:05:04.019Z,21.90
2022-11-21T07:07:31.116Z,22.40
2022-11-21T07:09:58.251Z,24.63
2022-11-21T07:12:44.162Z,24.47
2022-11-21T07:15:14.482Z,22.50
2022-11-21T07:17:41.543Z,22.23
2022-11-21T07:20:08.907Z,21.77
2022-11-21T07:22:36.013Z,22.23
2022-11-21T07:25:03.076Z,22.60
2022-11-21T07:27:30.187Z,23.37
2022-11-21T07:29:58.514Z,26.17
2022-11-21T07:32:25.937Z,23.33
2022-11-21T07:34:53.010Z,27.20
2022-11-21T07:37:20.241Z,28.00
2022-11-21T07:39:47.384Z,28.27
2022-11-21T07:42:14.506Z,29.80
2022-11-21T07:44:41.752Z,28.67
2022-11-21T07:47:08.833Z,28.87
2022-11-21T07:49:35.955Z,27.97
2022-11-21T07:52:03.013Z,27.83
2022-11-21T07:54:30.144Z,31.37
2022-11-21T07:56:57.229Z,31.03
2022-11-21T07:59:24.434Z,28.13
2022-11-21T08:01:52.573Z,29.83
2022-11-21T08:04:19.782Z,29.27
2022-11-21T08:06:47.093Z,28.17
2022-11-21T08:09:14.221Z,28.23
2022-11-21T08:11:43.382Z,28.83
2022-11-21T08:14:10.480Z,29.87
2022-11-21T08:16:37.637Z,29.63
2022-11-21T08:19:05.533Z,29.07
2022-11-21T08:21:32.697Z,30.73
2022-11-21T08:23:59.817Z,30.63
2022-11-21T08:26:26.944Z,29.97
2022-11-21T08:28:59.646Z,30.30
2022-11-21T08:31:27.097Z,31.17
2022-11-21T08:33:56.997Z,32.30
2022-11-21T08:36:24.361Z,28.47
2022-11-21T08:38:51.428Z,31.53
2022-11-21T08:41:37.418Z,32.17
2022-11-21T08:44:07.614Z,31.00
2022-11-21T08:46:38.338Z,30.23
2022-11-21T08:49:05.588Z,33.20
2022-11-21T08:51:33.070Z,32.17
2022-11-21T08:54:00.176Z,27.77
2022-11-21T08:56:27.520Z,31.63
2022-11-21T08:58:54.685Z,30.20
2022-11-21T09:01:21.860Z,31.43
2022-11-21T09:03:49.143Z,30.43
2022-11-21T09:06:16.305Z,29.93
2022-11-21T09:08:43.443Z,29.23
2022-11-21T09:11:11.138Z,28.97
2022-11-21T09:13:38.208Z,27.73
2022-11-21T09:16:23.645Z,28.03
2022-11-21T09:18:53.878Z,28.87
2022-11-21T09:21:21.968Z,30.80
2022-11-21T09:23:49.058Z,30.63
2022-11-21T09:26:16.188Z,30.07
2022-11-21T09:28:43.266Z,29.37
2022-11-21T09:31:10.336Z,27.63
2022-11-21T09:33:37.424Z,27.33
2022-11-21T09:36:04.682Z,29.37
2022-11-21T09:38:31.822Z,27.80
2022-11-21T09:41:42.834Z,28.23
2022-11-21T09:44:15.657Z,27.47
2022-11-21T09:46:46.947Z,25.23
2022-11-21T09:49:15.260Z,24.83
2022-11-21T09:51:43.328Z,23.07
2022-11-21T09:54:19.398Z,22.40
2022-11-21T09:56:48.213Z,23.43
2022-11-21T09:59:15.248Z,22.03
2022-11-21T10:01:42.378Z,20.90
2022-11-21T10:04:09.535Z,21.83
2022-11-21T10:06:44.689Z,21.77
2022-11-21T10:09:17.534Z,21.57
2022-11-21T10:12:08.984Z,21.00
2022-11-21T10:14:51.356Z,19.87
2022-11-21T10:17:32.389Z,21.00
2022-11-21T10:20:06.718Z,19.13
2022-11-21T10:22:43.210Z,18.60
2022-11-21T10:25:13.069Z,19.83
2022-11-21T10:27:47.433Z,18.50
2022-11-21T10:30:16.179Z,17.60
2022-11-21T10:32:48.634Z,14.57
2022-11-21T10:35:15.813Z,15.03
2022-11-21T10:37:47.155Z,14.60
2022-11-21T10:40:29.115Z,12.53
2022-11-21T10:43:20.986Z,13.20
2022-11-21T10:45:48.435Z,15.53
2022-11-21T10:48:15.538Z,13.23
2022-11-21T10:50:54.563Z,12.80
2022-11-21T10:53:41.370Z,14.00
2022-11-21T10:56:12.611Z,12.27
2022-11-21T10:58:48.215Z,11.67
2022-11-21T11:01:34.563Z,11.67
2022-11-21T11:04:26.817Z,10.43
2022-11-21T11:06:54.432Z,11.63
2022-11-21T11:09:32.606Z,12.43
2022-11-21T11:12:46.255Z,11.93
2022-11-21T11:15:24.552Z,11.53
2022-11-21T11:18:07.384Z,11.10
2022-11-21T11:20:42.024Z,11.80
2022-11-21T11:23:27.582Z,11.43
2022-11-21T11:25:57.639Z,11.40
2022-11-21T11:28:26.029Z,11.50
2022-11-21T11:30:55.361Z,11.03
2022-11-21T11:33:41.293Z,9.77
2022-11-21T11:36:44.554Z,16.70
2022-11-21T11:39:17.961Z,9.63
2022-11-21T11:42:39.553Z,8.80
2022-11-21T11:45:44.472Z,8.67
2022-11-21T11:48:11.217Z,8.47
2022-11-21T11:50:47.452Z,7.83
2022-11-21T11:53:17.218Z,8.60
2022-11-21T11:55:47.074Z,8.30
2022-11-21T11:58:29.169Z,8.10
2022-11-21T12:01:18.924Z,7.30
2022-11-21T12:03:58.427Z,7.27
2022-11-21T12:07:04.112Z,7.93
2022-11-21T12:09:49.488Z,7.13
2022-11-21T12:12:39.044Z,20.73
2022-11-21T12:15:49.387Z,8.30
2022-11-21T12:18:16.344Z,7.97
2022-11-21T12:21:07.998Z,6.67
2022-11-21T12:23:44.775Z,7.47
2022-11-21T12:26:14.211Z,6.77
2022-11-21T12:28:52.769Z,6.17
2022-11-21T12:32:14.962Z,5.63
2022-11-21T12:34:45.153Z,5.53
2022-11-21T12:37:20.940Z,5.47
2022-11-21T12:39:48.180Z,5.20
2022-11-21T12:42:44.400Z,5.40
2022-11-21T12:45:24.531Z,5.70
2022-11-21T12:48:28.861Z,5.03
2022-11-21T12:51:33.348Z,7.70
2022-11-21T12:54:19.135Z,4.07
2022-11-21T12:56:46.249Z,6.25
2022-11-21T12:59:14.727Z,4.00
2022-11-21T13:01:51.549Z,3.53
2022-11-21T13:04:21.038Z,6.00
2022-11-21T13:06:48.961Z,4.30
2022-11-21T13:09:18.292Z,5.13
2022-11-21T13:12:00.360Z,5.63
2022-11-21T13:14:27.513Z,5.30
2022-11-21T13:17:07.708Z,4.77
2022-11-21T13:19:34.838Z,5.40
2022-11-21T13:22:01.929Z,4.73
2022-11-21T13:24:48.065Z,5.37
2022-11-21T13:27:38.185Z,5.70
2022-11-21T13:30:09.303Z,6.07
2022-11-21T13:32:39.841Z,6.13
2022-11-21T13:35:15.916Z,6.87
2022-11-21T13:38:02.311Z,7.33
2022-11-21T13:40:32.239Z,7.37
2022-11-21T13:43:35.510Z,6.23
2022-11-21T13:46:03.057Z,6.70
2022-11-21T13:48:36.566Z,8.17
2022-11-21T13:51:22.418Z,7.23
2022-11-21T13:54:08.052Z,7.67
2022-11-21T13:56:53.919Z,7.33
2022-11-21T13:59:30.627Z,6.77
2022-11-21T14:02:06.999Z,6.70
2022-11-21T14:05:03.415Z,6.73
2022-11-21T14:07:32.138Z,7.00
2022-11-21T14:10:01.358Z,9.97
2022-11-21T14:12:35.282Z,5.83
2022-11-21T14:15:04.396Z,6.60
2022-11-21T14:17:44.840Z,5.93
2022-11-21T14:20:14.942Z,5.77
2022-11-21T14:22:45.757Z,5.17
2022-11-21T14:25:20.056Z,5.03
2022-11-21T14:27:48.719Z,4.33
2022-11-21T14:30:45.089Z,5.37
2022-11-21T14:33:31.958Z,4.87
2022-11-21T14:35:59.229Z,5.60
2022-11-21T14:38:27.509Z,5.47
2022-11-21T14:41:13.252Z,5.97
2022-11-21T14:43:40.363Z,6.50
2022-11-21T14:46:15.728Z,6.90
2022-11-21T14:48:46.986Z,6.20
2022-11-21T14:51:18.247Z,4.87
2022-11-21T14:53:47.237Z,6.07
2022-11-21T14:56:25.348Z,10.30
2022-11-21T14:58:56.430Z,5.93
2022-11-21T15:01:24.435Z,6.90
2022-11-21T15:03:59.290Z,6.30
2022-11-21T15:06:26.730Z,13.00
2022-11-21T15:10:11.476Z,6.03
2022-11-21T15:11:52.488Z,5.53
2022-11-21T15:14:22.813Z,5.20
2022-11-21T15:16:52.083Z,5.13
2022-11-21T15:19:23.870Z,4.90
2022-11-21T15:21:51.814Z,4.47
2022-11-21T15:24:31.035Z,4.00
2022-11-21T15:26:58.518Z,3.50
2022-11-21T15:29:25.612Z,3.80
2022-11-21T15:32:12.621Z,4.43
2022-11-21T15:34:43.229Z,4.40
2022-11-21T15:37:17.563Z,4.57
2022-11-21T15:39:49.824Z,4.47
2022-11-21T15:42:31.996Z,4.13
2022-11-21T15:45:00.507Z,4.17
2022-11-21T15:47:28.458Z,3.23
2022-11-21T15:49:55.651Z,3.00
2022-11-21T15:52:23.024Z,2.77
2022-11-21T15:54:50.314Z,6.20
2022-11-21T15:59:50.872Z,2.70
2022-11-21T16:02:18.240Z,2.70
2022-11-21T16:04:45.612Z,2.30
2022-11-21T16:07:15.883Z,3.10
2022-11-21T16:09:44.846Z,2.27
2022-11-21T16:12:12.183Z,1.73
2022-11-21T16:14:39.288Z,2.43
2022-11-21T16:17:06.424Z,2.53
2022-11-21T16:19:33.546Z,2.47
2022-11-21T16:22:00.724Z,4.93
2022-11-21T16:24:27.849Z,4.80
2022-11-21T16:26:55.880Z,6.33
2022-11-21T16:29:22.975Z,8.80
2022-11-21T16:31:55.777Z,9.37
2022-11-21T16:34:22.951Z,7.20
2022-11-21T16:36:50.610Z,5.60
2022-11-21T16:39:18.593Z,5.50
2022-11-21T16:41:47.290Z,3.60
2022-11-21T16:44:15.162Z,3.23
2022-11-21T16:46:43.104Z,3.17
2022-11-21T16:49:10.632Z,2.73
2022-11-21T16:51:37.904Z,2.40
2022-11-21T16:54:08.794Z,2.40
2022-11-21T16:56:36.114Z,3.00
2022-11-21T16:59:03.288Z,2.60
2022-11-21T17:01:30.601Z,1.90
2022-11-21T17:03:57.715Z,2.27
2022-11-21T17:06:27.062Z,2.10
2022-11-21T17:08:54.320Z,2.90
2022-11-21T17:11:22.960Z,2.20
2022-11-21T17:13:51.018Z,2.40
2022-11-21T17:16:20.102Z,2.63
2022-11-21T17:18:47.621Z,2.40
2022-11-21T17:21:16.523Z,2.40
2022-11-21T17:23:45.147Z,2.87
2022-11-21T17:26:13.909Z,2.70
2022-11-21T17:28:45.591Z,2.67
2022-11-21T17:31:16.430Z,3.20
2022-11-21T17:33:47.071Z,3.70
2022-11-21T17:36:15.177Z,2.30
2022-11-21T17:38:43.839Z,3.03
2022-11-21T17:41:12.299Z,2.47
2022-11-21T17:43:39.554Z,2.87
2022-11-21T17:46:09.975Z,2.63
2022-11-21T17:48:37.375Z,2.77
2022-11-21T17:51:09.427Z,11.03
2022-11-21T17:53:41.293Z,2.87
2022-11-21T17:56:10.516Z,2.40
2022-11-21T17:58:37.736Z,3.33
2022-11-21T18:01:05.845Z,2.70
2022-11-21T18:03:33.313Z,3.07
2022-11-21T18:06:02.250Z,4.37
2022-11-21T18:09:36.691Z,3.00
2022-11-21T18:11:46.582Z,4.83
2022-11-21T18:14:14.075Z,3.37
2022-11-21T18:16:50.890Z,2.87
2022-11-21T18:19:20.095Z,2.60
2022-11-21T18:21:47.242Z,2.87
2022-11-21T18:24:14.521Z,3.07
2022-11-21T18:26:44.207Z,2.43
2022-11-21T18:31:58.500Z,2.67
2022-11-21T18:34:25.589Z,2.20
2022-11-21T18:36:53.735Z,4.77
2022-11-21T18:39:23.840Z,3.67
2022-11-21T18:41:51.463Z,2.70
2022-11-21T18:44:22.292Z,2.83
2022-11-21T18:46:49.908Z,3.10
2022-11-21T18:49:18.056Z,2.47
2022-11-21T18:51:45.323Z,2.30
2022-11-21T18:54:12.947Z,4.60
2022-11-21T18:56:42.066Z,2.40
2022-11-21T18:59:09.211Z,2.60
2022-11-21T19:01:37.535Z,2.30
2022-11-21T19:04:04.879Z,2.57
2022-11-21T19:06:32.155Z,2.10
2022-11-21T19:08:59.664Z,2.63
2022-11-21T19:11:28.618Z,1.57
2022-11-21T19:13:57.131Z,2.33
2022-11-21T19:16:25.924Z,2.90
2022-11-21T19:21:47.175Z,2.80
2022-11-21T19:24:16.046Z,2.27
2022-11-21T19:26:43.559Z,2.93
2022-11-21T19:29:11.254Z,2.73
2022-11-21T19:31:44.600Z,2.40
2022-11-21T19:34:13.819Z,2.50
2022-11-21T19:36:43.046Z,2.67
2022-11-21T19:39:10.556Z,3.00
2022-11-21T19:41:37.654Z,2.60
2022-11-21T19:44:04.871Z,2.00
2022-11-21T19:46:33.223Z,2.37
2022-11-21T19:49:01.164Z,2.23
2022-11-21T19:51:32.570Z,2.40
2022-11-21T19:53:59.807Z,3.13
2022-11-21T19:56:27.127Z,3.63
2022-11-21T19:58:56.259Z,3.40
2022-11-21T20:01:28.037Z,2.80
2022-11-21T20:03:58.764Z,3.20
2022-11-21T20:06:35.759Z,3.37
2022-11-21T20:09:07.649Z,4.37
2022-11-21T20:11:35.309Z,2.70
2022-11-21T20:14:02.642Z,2.57
2022-11-21T20:16:34.069Z,2.77
2022-11-21T20:19:02.583Z,2.47
2022-11-21T20:21:29.958Z,2.63
2022-11-21T20:23:57.595Z,2.93
2022-11-21T20:26:25.400Z,4.27
2022-11-21T20:28:53.223Z,4.17
2022-11-21T20:31:27.198Z,4.27
2022-11-21T20:34:00.293Z,3.27
2022-11-21T20:36:28.332Z,2.30
2022-11-21T20:38:59.289Z,3.23
2022-11-21T20:41:31.257Z,2.60
2022-11-21T20:46:46.814Z,2.57
2022-11-21T20:49:13.983Z,2.60
2022-11-21T20:54:30.912Z,3.00
2022-11-21T20:56:58.390Z,2.87
2022-11-21T20:59:26.716Z,2.53
2022-11-21T21:01:54.120Z,2.63
2022-11-21T21:04:21.287Z,3.47
2022-11-21T21:06:48.624Z,3.20
2022-11-21T21:09:15.850Z,3.30
2022-11-21T21:11:52.168Z,2.73
2022-11-21T21:14:20.589Z,2.67
2022-11-21T21:16:47.715Z,2.53
2022-11-21T21:19:14.813Z,3.17
2022-11-21T21:21:45.284Z,10.83
2022-11-21T21:24:13.372Z,2.87
2022-11-21T21:26:45.056Z,2.80
2022-11-21T21:29:13.355Z,2.93
2022-11-21T21:31:45.270Z,3.00
2022-11-21T21:34:16.987Z,3.70
2022-11-21T21:36:44.119Z,2.97
2022-11-21T21:39:11.438Z,2.40
2022-11-21T21:41:41.381Z,2.70
2022-11-21T21:44:08.587Z,2.83
2022-11-21T21:46:35.716Z,3.13
2022-11-21T21:49:02.925Z,2.40
2022-11-21T21:51:31.161Z,3.00
2022-11-21T21:53:58.965Z,2.60
2022-11-21T21:56:27.080Z,3.23
2022-11-21T21:58:54.306Z,2.63
2022-11-21T22:01:29.129Z,2.70
2022-11-21T22:03:58.384Z,3.07
2022-11-21T22:06:58.809Z,5.97
2022-11-21T22:09:16.458Z,2.90
2022-11-21T22:11:43.709Z,2.63
2022-11-21T22:14:15.599Z,5.73
2022-11-21T22:16:46.405Z,2.90
2022-11-21T22:19:13.570Z,2.90
2022-11-21T22:21:40.671Z,2.77
2022-11-21T22:24:25.471Z,3.13
2022-11-21T22:26:53.426Z,3.40
2022-11-21T22:29:20.552Z,2.30
2022-11-21T22:31:51.501Z,2.10
2022-11-21T22:34:21.532Z,2.23
2022-11-21T22:36:48.611Z,2.70
2022-11-21T22:39:17.858Z,2.30
2022-11-21T22:41:45.007Z,2.27
2022-11-21T22:44:15.131Z,2.40
2022-11-21T22:46:42.350Z,2.03
2022-11-21T22:49:09.495Z,3.00
2022-11-21T22:51:36.607Z,2.80
2022-11-21T22:54:03.716Z,2.03
2022-11-21T22:56:30.928Z,2.57
2022-11-21T22:58:58.052Z,2.50
2022-11-21T23:01:26.592Z,2.50
2022-11-21T23:03:55.474Z,2.23
2022-11-21T23:06:24.205Z,2.33
2022-11-21T23:08:52.019Z,2.13
2022-11-21T23:11:21.530Z,1.60
2022-11-21T23:13:49.053Z,3.40
2022-11-21T23:16:16.826Z,2.80
2022-11-21T23:18:44.364Z,1.70
2022-11-21T23:21:14.900Z,2.47
2022-11-21T23:23:45.227Z,2.20
2022-11-21T23:26:12.617Z,2.30
2022-11-21T23:28:39.807Z,2.47
2022-11-21T23:31:06.910Z,2.40
2022-11-21T23:33:33.965Z,2.03
2022-11-21T23:36:01.036Z,2.17
2022-11-21T23:38:28.138Z,2.40
2022-11-21T23:40:55.278Z,1.90
2022-11-21T23:43:22.376Z,2.57
2022-11-21T23:45:52.870Z,1.60
2022-11-21T23:48:20.268Z,2.17
2022-11-21T23:50:47.778Z,2.10
2022-11-21T23:53:15.214Z,2.07
2022-11-21T23:55:44.015Z,2.13
2022-11-21T23:58:12.520Z,1.90
